Flight Track Log - Related Links

Times and Time Zones

All times are in EDT time to prevent confusion due to time zone crossing. See the UAL527 flight status page for this flight to view local times or setup timezone preferences in your user account.

Time Position Orientation Groundspeed Altitude Reporting Facility
EDT Latitude Longitude Course Direction KTS MPH feet Rate Location/Type
Sat 03:14:46 PM 39.8411 -104.7514 180° South 175 201 6,600  Level Denver Center
Sat 03:15:48 PM 39.8200 -104.8378 252° West 238 274 8,100 1,935 Climbing Denver Center
Sat 03:16:50 PM 39.7625 -104.8792 209° Southwest 275 316 10,600 2,098 Climbing Denver Center
Sat 03:17:00 PM 39.6988 -104.3607 205° Southwest  Level FlightAware Approximate
Sat 03:17:51 PM 39.6886 -104.8217 149° Southeast 293 337 12,400  Level Denver Center
Sat 03:18:00 PM 39.5976 -104.4185 210° Southwest  Level FlightAware Approximate
Sat 03:18:53 PM 39.6094 -104.7544 147° Southeast 344 396 15,100  Level Denver Center
Sat 03:19:00 PM 39.5010 -104.4882 207° Southwest  Level FlightAware Approximate
Sat 03:19:55 PM 39.5247 -104.6931 151° Southeast 350 403 18,600  Level Denver Center
Sat 03:20:00 PM 39.3927 -104.5000 180° South  Level FlightAware Approximate
Sat 03:20:57 PM 39.4292 -104.6367 155° Southeast 348 400 21,800  Level Denver Center
Sat 03:21:58 PM 39.3283 -104.5744 154° Southeast 379 436 24,200 2,244 Climbing Denver Center
Sat 03:23:00 PM 39.2303 -104.5169 156° South 389 448 26,400 1,500 Climbing Denver Center
Sat 03:24:02 PM 39.1272 -104.4586 156° South 404 465 27,300 878 Climbing Denver Center
Sat 03:25:03 PM 39.0144 -104.4247 167° South 413 475 28,200 780 Climbing Denver Center
Sat 03:26:05 PM 38.8933 -104.3925 168° South 434 499 28,900 1,065 Climbing Denver Center
Sat 03:27:07 PM 38.7700 -104.3578 168° South 451 519 30,400 1,403 Climbing Denver Center
Sat 03:28:09 PM 38.6531 -104.3000 159° South 454 522 31,800 1,403 Climbing Denver Center
Sat 03:29:11 PM 38.5278 -104.1839 144° Southeast 463 533 33,300 1,317 Climbing Denver Center
Sat 03:30:12 PM 38.4308 -104.0797 140° Southeast 464 534 34,500 829 Climbing Denver Center
Sat 03:31:14 PM 38.3367 -103.9769 139° Southeast 463 533 35,000 242 Climbing Denver Center
Sat 03:32:16 PM 38.2272 -103.8608 140° Southeast 458 527 35,000  Level Denver Center
Sat 03:33:18 PM 38.1322 -103.7606 140° Southeast 462 532 35,000  Level Denver Center
Sat 03:34:20 PM 38.0231 -103.6431 140° Southeast 459 528 35,000  Level Denver Center
Sat 03:35:21 PM 37.9289 -103.5433 140° Southeast 458 527 35,000  Level Denver Center
Sat 03:36:23 PM 37.8339 -103.4431 140° Southeast 460 529 35,000  Level Denver Center
Sat 03:37:37 PM 37.7225 -103.3267 140° Southeast 462 532 35,000  Level Denver Center
Sat 03:38:39 PM 37.6119 -103.2097 140° Southeast 462 532 35,000  Level Denver Center
Sat 03:39:41 PM 37.5003 -103.0944 141° Southeast 462 532 35,000  Level Denver Center
Sat 03:40:42 PM 37.4211 -103.0128 141° Southeast 460 529 35,000  Level Denver Center
Sat 03:41:08 PM 37.3581 -102.9472 140° Southeast 460 529 35,000  Level Albuquerque Center
Sat 03:42:09 PM 37.2636 -102.8483 140° Southeast 461 531 35,000  Level Albuquerque Center
Sat 03:43:11 PM 37.1522 -102.7344 141° Southeast 461 531 35,000  Level Albuquerque Center
Sat 03:44:12 PM 37.0572 -102.6375 141° Southeast 460 529 35,000  Level Albuquerque Center
Sat 03:45:14 PM 36.9472 -102.5242 141° Southeast 458 527 35,000  Level Albuquerque Center
Sat 03:46:15 PM 36.8642 -102.4411 141° Southeast 459 528 35,000  Level Albuquerque Center
Sat 03:47:17 PM 36.7467 -102.3200 140° Southeast 458 527 35,000  Level Albuquerque Center
Sat 03:48:18 PM 36.6481 -102.2211 141° Southeast 455 524 35,000  Level Albuquerque Center
Sat 03:49:20 PM 36.5506 -102.1231 141° Southeast 452 520 35,000  Level Albuquerque Center
Sat 03:50:22 PM 36.4531 -102.0244 141° Southeast 451 519 35,000 -49 Level Albuquerque Center
Sat 03:51:23 PM 36.3558 -101.9272 141° Southeast 448 516 34,900  Descending Albuquerque Center
Sat 03:52:25 PM 36.2578 -101.8294 141° Southeast 450 518 35,000 49 Climbing Albuquerque Center
Sat 03:53:26 PM 36.1600 -101.7331 141° Southeast 450 518 35,000  Level Albuquerque Center
Sat 03:54:28 PM 36.0611 -101.6344 141° Southeast 453 521 35,000  Level Albuquerque Center
Sat 03:55:29 PM 35.9431 -101.5147 141° Southeast 455 524 35,000  Level Albuquerque Center
Sat 03:56:31 PM 35.8442 -101.4186 142° Southeast 453 521 35,000  Level Albuquerque Center
Sat 03:57:32 PM 35.7586 -101.3031 132° Southeast 454 522 35,000  Level Albuquerque Center
Sat 03:58:34 PM 35.6797 -101.1767 128° Southeast 461 531 35,000  Level Albuquerque Center
Sat 03:59:35 PM 35.5997 -101.0519 128° Southeast 462 532 35,000  Level Albuquerque Center
Sat 04:00:37 PM 35.5206 -100.9258 128° Southeast 463 533 35,000  Level Albuquerque Center
Sat 04:01:38 PM 35.4411 -100.8014 128° Southeast 462 532 35,000  Level Albuquerque Center
Sat 04:02:40 PM 35.3622 -100.6767 128° Southeast 462 532 35,000  Level Albuquerque Center
Sat 04:03:41 PM 35.2739 -100.5408 129° Southeast 465 535 35,000  Level Albuquerque Center
Sat 04:04:43 PM 35.1942 -100.4161 128° Southeast 467 537 35,000  Level Albuquerque Center
Sat 04:05:44 PM 35.1142 -100.2933 129° Southeast 463 533 35,000  Level Albuquerque Center
Sat 04:06:46 PM 35.0350 -100.1703 128° Southeast 462 532 35,000  Level Albuquerque Center
Sat 04:07:48 PM 34.9544 -100.0469 129° Southeast 464 534 35,000  Level Albuquerque Center
Sat 04:08:49 PM 34.8592 -99.9008 128° Southeast 461 531 35,000 -293 Level Albuquerque Center
Sat 04:09:51 PM 34.7797 -99.7797 129° Southeast 459 528 34,400 -800 Descending Albuquerque Center
Sat 04:10:49 PM 34.6978 -99.6589 129° Southeast 461 531 33,400 -958 Descending Fort Worth Center
Sat 04:11:50 PM 34.6206 -99.5356 127° Southeast 461 531 32,500 -950 Descending Fort Worth Center
Sat 04:12:49 PM 34.5475 -99.4128 126° Southeast 466 536 31,500 -1,008 Descending Fort Worth Center
Sat 04:13:49 PM 34.4700 -99.2875 127° Southeast 461 531 30,500 -900 Descending Fort Worth Center
Sat 04:14:49 PM 34.3769 -99.2353 155° Southeast 441 507 29,700 -750 Descending Fort Worth Center
Sat 04:15:49 PM 34.2436 -99.2300 178° South 427 491 29,000 -350 Descending Fort Worth Center
Sat 04:16:49 PM 34.1253 -99.1872 163° South 432 497 29,000 -298 Level Fort Worth Center
Sat 04:17:50 PM 34.0519 -99.0556 124° Southeast 432 497 28,400 -1,000 Descending Fort Worth Center
Sat 04:18:49 PM 34.0081 -98.8917 108° East 433 498 27,000 -1,462 Descending Fort Worth Center
Sat 04:19:49 PM 33.9761 -98.7533 106° East 444 511 25,500 -1,300 Descending Fort Worth Center
Sat 04:20:49 PM 33.9381 -98.6025 107° East 456 525 24,400 -1,200 Descending Fort Worth Center
Sat 04:21:49 PM 33.8978 -98.4544 108° East 468 539 23,100 -1,400 Descending Fort Worth Center
Sat 04:22:49 PM 33.8614 -98.2939 105° East 455 524 21,600 -1,500 Descending Fort Worth Center
Sat 04:23:49 PM 33.8267 -98.1586 107° East 436 502 20,100 -1,750 Descending Fort Worth Center
Sat 04:24:49 PM 33.7942 -98.0283 107° East 414 476 18,100 -1,950 Descending Fort Worth Center
Sat 04:25:49 PM 33.7633 -97.9156 108° East 399 459 16,200 -2,050 Descending Fort Worth Center
Sat 04:26:49 PM 33.7344 -97.7931 106° East 393 452 14,000 -2,000 Descending Fort Worth Center
Sat 04:27:49 PM 33.6700 -97.6906 127° Southeast 352 405 12,200 -1,650 Descending Fort Worth Center
Sat 04:28:49 PM 33.6014 -97.6181 139° Southeast 345 397 10,700 -1,100 Descending Fort Worth Center
Sat 04:29:49 PM 33.5200 -97.5803 159° South 319 367 10,000 -1,000 Descending Fort Worth Center
Sat 04:30:49 PM 33.4575 -97.5628 167° South 284 327 8,700 -1,350 Descending Fort Worth Center
Sat 04:31:49 PM 33.3781 -97.5378 165° South 272 313 7,300 -1,266 Descending Fort Worth Center
Sat 04:32:38 PM 33.3167 -97.5167 164° South 263 303 6,400 -991 Descending Dallas / Fort Worth TRACON
Sat 04:33:38 PM 33.2667 -97.4500 132° Southeast 264 304 5,500 -667 Descending Dallas / Fort Worth TRACON
Sat 04:34:44 PM 33.2000 -97.3833 140° Southeast 265 305 5,000 -250 Descending Dallas / Fort Worth TRACON
Sat 04:35:38 PM 33.1500 -97.3333 140° Southeast 250 288 5,000 -526 Level Dallas / Fort Worth TRACON
Sat 04:36:38 PM 33.1167 -97.2833 129° Southeast 233 268 4,000 -800 Descending Dallas / Fort Worth TRACON
Sat 04:37:38 PM 33.0667 -97.2333 140° Southeast 226 260 3,400 -600 Descending Dallas / Fort Worth TRACON

Login

Don't have an account? Register now (free) for customized features, flight alerts, and more!